Time;durP1;ratioP1;P1;durP2;ratioP2;P2;SDS_P1;SDS_P2;PMS_P1;PMS_P2;Temp;Humidity;BMP_temperature;BMP_pressure;BME280_temperature;BME280_humidity;BME280_pressure;Samples;Min_cycle;Max_cycle;Signal;HPM_P1;HPM_P2
2022/07/10 00:00:14;;;;;;;6.95;1.08;;;17.30;99.90;;;;;;5097791;28;20044;-71
2022/07/10 00:02:42;;;;;;;7.15;0.80;;;17.30;99.90;;;;;;5097985;28;20040;-69
2022/07/10 00:05:10;;;;;;;8.20;1.10;;;17.30;99.90;;;;;;5097913;28;20039;-70
2022/07/10 00:07:36;;;;;;;12.48;1.48;;;17.30;99.90;;;;;;5096676;28;20424;-70
2022/07/10 00:10:03;;;;;;;11.23;1.48;;;17.10;99.90;;;;;;5097769;28;20035;-69
2022/07/10 00:12:29;;;;;;;8.85;1.00;;;17.10;99.90;;;;;;5097099;28;20066;-69
2022/07/10 00:14:54;;;;;;;13.50;1.08;;;17.00;99.90;;;;;;5097507;28;20429;-69
2022/07/10 00:17:20;;;;;;;7.22;0.98;;;17.00;99.90;;;;;;5097408;28;20042;-69
2022/07/10 00:19:45;;;;;;;7.30;0.95;;;17.10;99.90;;;;;;5097475;28;20036;-70
2022/07/10 00:22:11;;;;;;;8.30;1.27;;;16.90;99.90;;;;;;5097012;28;20035;-70
2022/07/10 00:24:37;;;;;;;6.22;0.85;;;16.80;99.90;;;;;;5097791;28;20048;-70
2022/07/10 00:27:03;;;;;;;6.20;0.80;;;16.80;99.90;;;;;;5097568;28;20032;-69
2022/07/10 00:29:28;;;;;;;7.32;0.93;;;16.80;99.90;;;;;;5097260;28;20074;-69
2022/07/10 00:31:54;;;;;;;7.45;1.20;;;16.80;99.90;;;;;;5097474;28;20082;-69
2022/07/10 00:34:20;;;;;;;7.78;1.20;;;16.80;99.90;;;;;;5097552;28;20040;-69
2022/07/10 00:36:46;;;;;;;11.57;1.17;;;16.70;99.90;;;;;;5097317;28;20059;-69
2022/07/10 00:39:12;;;;;;;12.50;1.30;;;16.60;99.90;;;;;;5097364;28;20036;-69
2022/07/10 00:41:37;;;;;;;8.60;1.25;;;16.60;99.90;;;;;;5097118;28;20043;-69
2022/07/10 00:44:04;;;;;;;11.70;0.90;;;16.60;99.90;;;;;;5096841;28;20032;-69
2022/07/10 00:46:31;;;;;;;8.80;1.00;;;16.50;99.90;;;;;;5097124;28;20044;-70
2022/07/10 00:48:57;;;;;;;9.13;0.95;;;16.70;99.90;;;;;;5096900;28;20060;-70
2022/07/10 00:51:28;;;;;;;5.80;1.10;;;16.80;99.90;;;;;;5096941;28;20043;-69
2022/07/10 00:53:55;;;;;;;6.88;0.70;;;16.90;99.90;;;;;;5096925;28;20325;-70
2022/07/10 00:56:24;;;;;;;8.77;1.30;;;17.00;99.90;;;;;;5095876;28;20047;-70
2022/07/10 00:58:50;;;;;;;5.03;0.93;;;17.00;99.90;;;;;;5096596;28;20044;-70
2022/07/10 01:01:17;;;;;;;10.07;1.45;;;17.00;99.90;;;;;;5097092;28;20036;-70
2022/07/10 01:03:46;;;;;;;8.68;1.20;;;16.80;99.90;;;;;;5096756;28;20032;-69
2022/07/10 01:06:12;;;;;;;11.38;1.85;;;16.70;99.90;;;;;;5096028;28;20066;-69
2022/07/10 01:08:38;;;;;;;11.52;2.00;;;16.60;99.90;;;;;;5096705;28;20040;-69
2022/07/10 01:11:05;;;;;;;10.38;1.45;;;16.60;99.90;;;;;;5096535;28;20046;-70
2022/07/10 01:13:31;;;;;;;14.02;1.55;;;16.70;99.90;;;;;;5096902;28;20044;-70
2022/07/10 01:15:57;;;;;;;9.93;1.40;;;16.60;99.90;;;;;;5096609;28;20105;-70
2022/07/10 01:18:24;;;;;;;9.30;1.50;;;16.60;99.90;;;;;;5095472;28;20367;-70
2022/07/10 01:20:54;;;;;;;8.13;1.13;;;16.60;99.90;;;;;;5096751;28;20044;-70
2022/07/10 01:23:21;;;;;;;9.20;1.20;;;16.70;99.90;;;;;;5096593;28;20105;-69
2022/07/10 01:25:48;;;;;;;9.02;1.10;;;16.70;99.90;;;;;;5095558;28;20051;-69
2022/07/10 01:28:14;;;;;;;8.05;1.08;;;16.60;99.90;;;;;;5096593;28;20040;-69
2022/07/10 01:30:40;;;;;;;12.13;1.23;;;16.50;99.90;;;;;;5096799;28;20107;-69
2022/07/10 01:33:06;;;;;;;10.70;1.23;;;16.40;99.90;;;;;;5096597;28;20381;-69
2022/07/10 01:35:31;;;;;;;10.90;1.25;;;16.30;99.90;;;;;;5096718;28;20047;-69
2022/07/10 01:37:57;;;;;;;7.03;1.10;;;16.40;99.90;;;;;;5096343;28;20077;-69
2022/07/10 01:40:23;;;;;;;8.40;0.82;;;16.40;99.90;;;;;;5095618;28;20040;-69
2022/07/10 01:42:48;;;;;;;14.50;1.40;;;16.40;99.90;;;;;;5096404;28;20047;-69
2022/07/10 01:45:16;;;;;;;10.73;1.27;;;16.30;99.90;;;;;;5096645;28;20039;-69
2022/07/10 01:47:43;;;;;;;10.13;1.00;;;16.30;99.90;;;;;;5095956;28;20115;-69
2022/07/10 01:50:09;;;;;;;6.47;0.88;;;16.40;99.90;;;;;;5095551;28;20052;-69
2022/07/10 01:52:35;;;;;;;8.68;1.00;;;16.40;99.90;;;;;;5096338;28;20046;-69
2022/07/10 01:55:01;;;;;;;5.22;0.70;;;16.20;99.90;;;;;;5096360;28;20071;-69
2022/07/10 01:57:27;;;;;;;8.10;1.08;;;16.20;99.90;;;;;;5096542;28;20090;-69
2022/07/10 01:59:53;;;;;;;7.05;0.90;;;16.20;99.90;;;;;;5096354;28;20043;-70
2022/07/10 02:02:18;;;;;;;7.80;1.00;;;16.30;99.90;;;;;;5096145;28;20371;-70
2022/07/10 02:04:44;;;;;;;9.63;0.93;;;16.20;99.90;;;;;;5096200;28;20036;-69
2022/07/10 02:07:18;;;;;;;8.75;0.70;;;16.10;99.90;;;;;;5096387;28;20063;-69
2022/07/10 02:09:45;;;;;;;4.93;0.80;;;16.10;99.90;;;;;;5097592;28;20048;-70
2022/07/10 02:12:13;;;;;;;6.97;1.38;;;16.20;99.90;;;;;;5099889;28;20047;-70
2022/07/10 02:14:39;;;;;;;11.75;1.08;;;16.00;99.90;;;;;;5099939;28;20428;-70
2022/07/10 02:17:06;;;;;;;9.60;0.95;;;16.00;99.90;;;;;;5099925;28;20044;-70
2022/07/10 02:19:32;;;;;;;7.05;0.55;;;16.10;99.90;;;;;;5099831;28;20086;-70
2022/07/10 02:21:59;;;;;;;6.57;0.70;;;16.20;99.90;;;;;;5099809;28;20044;-70
2022/07/10 02:24:25;;;;;;;7.53;0.90;;;16.20;99.90;;;;;;5099517;28;20066;-70
2022/07/10 02:26:51;;;;;;;8.65;1.25;;;16.30;99.90;;;;;;5099626;28;20048;-69
2022/07/10 02:29:17;;;;;;;7.72;1.15;;;16.20;99.90;;;;;;5099911;28;20036;-69
2022/07/10 02:31:43;;;;;;;10.45;1.23;;;16.20;99.90;;;;;;5098940;28;20375;-69
2022/07/10 02:34:10;;;;;;;10.30;1.77;;;16.20;99.90;;;;;;5098768;28;20043;-69
2022/07/10 02:36:38;;;;;;;9.93;1.02;;;16.20;99.90;;;;;;5099746;28;20043;-69
2022/07/10 02:39:06;;;;;;;13.07;1.20;;;16.00;99.90;;;;;;5099604;28;20119;-69
2022/07/10 02:41:32;;;;;;;10.65;1.45;;;15.90;99.90;;;;;;5099770;28;20127;-69
2022/07/10 02:43:58;;;;;;;8.05;0.93;;;15.90;99.90;;;;;;5099331;28;20123;-69
2022/07/10 02:46:24;;;;;;;8.95;1.10;;;15.90;99.90;;;;;;5099530;28;20032;-70
2022/07/10 02:48:50;;;;;;;6.43;0.77;;;15.90;99.90;;;;;;5099050;28;20067;-69
2022/07/10 02:51:15;;;;;;;6.47;0.93;;;15.90;99.90;;;;;;5099305;28;20036;-70
2022/07/10 02:53:41;;;;;;;9.80;1.20;;;16.00;99.90;;;;;;5099500;28;20378;-69
2022/07/10 02:56:07;;;;;;;9.23;1.02;;;16.00;99.90;;;;;;5099448;28;20530;-70
2022/07/10 02:58:33;;;;;;;9.48;1.20;;;16.10;99.90;;;;;;5099420;28;20413;-70
2022/07/10 03:00:59;;;;;;;7.95;1.02;;;16.20;99.90;;;;;;5099107;28;20043;-69
2022/07/10 03:03:25;;;;;;;9.88;1.35;;;16.20;99.90;;;;;;5098080;28;20044;-70
2022/07/10 03:05:50;;;;;;;8.30;1.30;;;16.20;99.90;;;;;;5098815;28;20092;-70
2022/07/10 03:08:16;;;;;;;11.50;1.00;;;16.10;99.90;;;;;;5098774;28;20039;-70
2022/07/10 03:10:42;;;;;;;9.02;1.25;;;16.10;99.90;;;;;;5098853;28;20089;-70
2022/07/10 03:13:08;;;;;;;7.30;1.10;;;16.10;99.90;;;;;;5098881;28;20069;-69
2022/07/10 03:15:33;;;;;;;10.15;1.05;;;16.20;99.90;;;;;;5098033;28;20039;-69
2022/07/10 03:17:59;;;;;;;10.75;1.38;;;16.30;99.90;;;;;;5098338;28;20044;-69
2022/07/10 03:20:25;;;;;;;8.88;1.00;;;16.40;99.90;;;;;;5098567;28;20124;-69
2022/07/10 03:22:51;;;;;;;9.38;1.13;;;16.40;99.90;;;;;;5098213;28;20444;-69
2022/07/10 03:25:17;;;;;;;11.50;0.98;;;16.50;99.90;;;;;;5098835;28;20036;-69
2022/07/10 03:27:43;;;;;;;7.82;1.02;;;16.40;99.90;;;;;;5098759;28;20321;-69
2022/07/10 03:30:09;;;;;;;12.80;0.90;;;16.40;99.90;;;;;;5098623;28;20076;-69
2022/07/10 03:32:35;;;;;;;11.40;0.90;;;16.40;99.90;;;;;;5098694;28;20040;-69
2022/07/10 03:35:01;;;;;;;7.78;1.08;;;16.40;99.90;;;;;;5097487;28;20082;-69
2022/07/10 03:37:27;;;;;;;10.15;0.95;;;16.50;99.90;;;;;;5098667;28;20306;-70
2022/07/10 03:39:53;;;;;;;8.23;1.00;;;16.50;99.90;;;;;;5097403;28;20058;-69
2022/07/10 03:42:19;;;;;;;12.00;1.08;;;16.50;99.90;;;;;;5098338;28;20032;-70
2022/07/10 03:44:44;;;;;;;8.70;1.40;;;16.50;99.90;;;;;;5098169;28;20036;-70
2022/07/10 03:47:11;;;;;;;11.18;1.20;;;16.50;99.90;;;;;;5098306;28;20036;-69
2022/07/10 03:49:38;;;;;;;7.70;1.08;;;16.60;99.90;;;;;;5097587;28;20115;-70
2022/07/10 03:52:04;;;;;;;10.70;1.35;;;16.60;99.90;;;;;;5098317;28;20044;-69
2022/07/10 03:54:31;;;;;;;11.10;1.20;;;16.60;99.90;;;;;;5098211;28;20044;-70
2022/07/10 03:59:42;;;;;;;10.57;1.00;;;16.50;99.90;;;;;;5098213;28;20336;-69
2022/07/10 04:02:08;;;;;;;11.23;1.67;;;16.60;99.90;;;;;;5096679;28;20040;-69
2022/07/10 04:04:33;;;;;;;9.80;0.90;;;16.60;99.90;;;;;;5097821;28;20075;-69
2022/07/10 04:06:59;;;;;;;10.75;1.52;;;16.60;99.90;;;;;;5097958;28;20071;-69
2022/07/10 04:09:25;;;;;;;5.72;0.77;;;16.80;99.90;;;;;;5097857;28;20353;-69
2022/07/10 04:11:51;;;;;;;13.55;1.20;;;16.80;99.90;;;;;;5098012;28;20162;-69
2022/07/10 04:14:17;;;;;;;6.20;1.10;;;16.80;99.90;;;;;;5097631;28;20051;-69
2022/07/10 04:16:43;;;;;;;12.63;1.48;;;16.70;99.90;;;;;;5097470;28;20332;-69
2022/07/10 04:19:08;;;;;;;11.73;1.58;;;16.80;99.90;;;;;;5097394;28;20036;-69
2022/07/10 04:21:34;;;;;;;11.77;1.25;;;16.80;99.90;;;;;;5097572;28;20039;-69
2022/07/10 04:24:00;;;;;;;9.50;1.17;;;16.60;99.90;;;;;;5097131;28;20054;-69
2022/07/10 04:26:26;;;;;;;9.82;1.42;;;16.60;99.90;;;;;;5097508;28;20042;-69
2022/07/10 04:28:51;;;;;;;14.48;1.45;;;16.70;99.90;;;;;;5097647;28;20064;-69
2022/07/10 04:31:17;;;;;;;13.05;1.33;;;16.70;99.90;;;;;;5096545;28;20097;-69
2022/07/10 04:33:43;;;;;;;9.82;1.35;;;16.60;99.90;;;;;;5097019;28;20130;-69
2022/07/10 04:36:08;;;;;;;10.50;2.20;;;16.60;99.90;;;;;;5097325;28;20073;-69
2022/07/10 04:38:34;;;;;;;9.90;1.70;;;16.60;99.90;;;;;;5097444;28;20037;-69
2022/07/10 04:41:00;;;;;;;10.25;1.55;;;16.70;99.90;;;;;;5097117;28;20035;-70
2022/07/10 04:43:26;;;;;;;15.55;1.60;;;16.70;99.90;;;;;;5097247;28;20071;-69
2022/07/10 04:45:52;;;;;;;12.63;2.03;;;16.70;99.90;;;;;;5096889;28;20417;-70
2022/07/10 04:48:17;;;;;;;11.00;1.20;;;16.70;99.90;;;;;;5096793;28;20119;-70
2022/07/10 04:50:43;;;;;;;12.45;1.13;;;16.60;99.90;;;;;;5097214;28;20386;-69
2022/07/10 04:53:09;;;;;;;12.00;1.50;;;16.70;99.90;;;;;;5096875;28;20051;-69
2022/07/10 04:55:34;;;;;;;10.48;1.23;;;16.70;99.90;;;;;;5096923;28;20036;-70
2022/07/10 04:58:00;;;;;;;13.02;1.30;;;16.80;99.90;;;;;;5096730;28;20124;-69
2022/07/10 05:00:26;;;;;;;10.05;1.17;;;16.90;99.90;;;;;;5096813;28;20083;-70
2022/07/10 05:02:52;;;;;;;12.43;1.23;;;16.90;99.90;;;;;;5096830;28;20040;-69
2022/07/10 05:05:18;;;;;;;9.02;1.05;;;16.90;99.90;;;;;;5097120;28;20407;-69
2022/07/10 05:07:43;;;;;;;11.38;1.30;;;16.80;99.90;;;;;;5096770;28;20036;-69
2022/07/10 05:10:09;;;;;;;12.75;1.23;;;16.90;99.90;;;;;;5096847;28;20487;-69
2022/07/10 05:12:35;;;;;;;9.88;1.95;;;16.80;99.90;;;;;;5096761;28;20097;-69
2022/07/10 05:15:01;;;;;;;11.95;1.20;;;16.80;99.90;;;;;;5096635;28;20082;-70
2022/07/10 05:17:28;;;;;;;6.88;1.05;;;16.80;99.90;;;;;;5096395;28;20123;-70
2022/07/10 05:19:55;;;;;;;12.02;1.00;;;16.90;99.90;;;;;;5096779;28;20097;-69
2022/07/10 05:22:22;;;;;;;10.93;1.40;;;17.00;99.90;;;;;;5096655;28;20046;-69
2022/07/10 05:24:48;;;;;;;7.05;0.77;;;16.90;99.90;;;;;;5096668;28;20344;-69
2022/07/10 05:27:16;;;;;;;9.68;1.30;;;16.90;99.90;;;;;;5096861;28;20372;-69
2022/07/10 05:29:42;;;;;;;9.45;1.65;;;16.90;99.90;;;;;;5096388;28;20425;-69
2022/07/10 05:32:08;;;;;;;7.85;1.08;;;16.90;99.90;;;;;;5096755;28;20101;-69
2022/07/10 05:34:33;;;;;;;14.63;1.48;;;17.00;99.90;;;;;;5096426;28;20036;-69
2022/07/10 05:36:59;;;;;;;8.75;1.55;;;17.00;99.90;;;;;;5095510;28;20076;-69
2022/07/10 05:39:26;;;;;;;10.35;1.20;;;17.00;99.90;;;;;;5096503;28;20044;-69
2022/07/10 05:41:52;;;;;;;13.75;1.17;;;17.00;99.90;;;;;;5096681;28;20044;-69
2022/07/10 05:44:19;;;;;;;6.57;1.35;;;17.00;99.90;;;;;;5096685;28;20032;-69
2022/07/10 05:46:45;;;;;;;6.53;1.30;;;17.00;99.90;;;;;;5100484;28;20127;-70
2022/07/10 05:49:12;;;;;;;6.45;1.15;;;17.20;99.90;;;;;;5100120;28;20547;-70
2022/07/10 05:51:37;;;;;;;5.10;1.23;;;17.30;99.90;;;;;;5100524;28;20036;-70
2022/07/10 05:54:03;;;;;;;6.25;1.05;;;17.40;99.90;;;;;;5100550;28;20032;-69
2022/07/10 05:56:29;;;;;;;6.15;1.30;;;17.60;99.90;;;;;;5099285;28;20071;-69
2022/07/10 05:58:55;;;;;;;9.95;1.55;;;17.60;99.90;;;;;;5100351;28;20086;-70
2022/07/10 06:01:22;;;;;;;7.88;1.05;;;17.60;99.90;;;;;;5100191;28;20036;-69
2022/07/10 06:03:47;;;;;;;9.35;0.98;;;17.60;99.90;;;;;;5100182;28;20051;-69
2022/07/10 06:06:15;;;;;;;11.73;1.50;;;17.50;99.90;;;;;;5100234;28;20040;-70
2022/07/10 06:08:41;;;;;;;8.68;1.58;;;17.40;99.90;;;;;;5099040;28;20044;-70
2022/07/10 06:11:07;;;;;;;7.25;1.13;;;17.40;99.90;;;;;;5099930;28;20424;-70
2022/07/10 06:13:32;;;;;;;6.07;0.90;;;17.40;99.90;;;;;;5100158;28;20090;-70
2022/07/10 06:15:58;;;;;;;15.38;1.27;;;17.50;99.90;;;;;;5100145;28;20412;-70
2022/07/10 06:18:24;;;;;;;10.77;1.33;;;17.40;99.90;;;;;;5099478;28;20449;-70
2022/07/10 06:20:49;;;;;;;9.43;1.23;;;17.40;99.90;;;;;;5099083;28;20115;-70
2022/07/10 06:23:15;;;;;;;7.13;1.40;;;17.40;99.90;;;;;;5099536;28;20052;-69
2022/07/10 06:25:41;;;;;;;10.63;1.25;;;17.10;99.90;;;;;;5099787;28;20048;-69
2022/07/10 06:28:06;;;;;;;5.25;1.00;;;17.10;99.90;;;;;;5099692;28;20063;-70
2022/07/10 06:30:32;;;;;;;10.88;1.10;;;17.10;99.90;;;;;;5099945;28;20040;-69
2022/07/10 06:32:58;;;;;;;10.88;1.48;;;17.00;99.90;;;;;;5099680;28;20096;-69
2022/07/10 06:35:23;;;;;;;5.90;0.77;;;17.20;99.90;;;;;;5099749;28;20044;-70
2022/07/10 06:37:49;;;;;;;6.60;1.27;;;17.40;99.90;;;;;;5099700;28;20032;-69
2022/07/10 06:40:16;;;;;;;6.47;1.13;;;17.50;99.90;;;;;;5099599;28;20039;-70
2022/07/10 06:42:41;;;;;;;6.63;1.27;;;17.50;99.90;;;;;;5099576;28;20039;-70
2022/07/10 06:45:08;;;;;;;14.80;1.67;;;17.50;99.90;;;;;;5099709;28;20443;-70
2022/07/10 06:50:18;;;;;;;11.13;1.42;;;17.20;99.90;;;;;;5099331;28;20047;-70
2022/07/10 06:52:43;;;;;;;8.73;1.23;;;17.00;99.90;;;;;;5098397;28;20325;-69
2022/07/10 06:55:09;;;;;;;10.27;1.58;;;16.80;99.90;;;;;;5098631;28;20148;-70
2022/07/10 06:57:37;;;;;;;9.38;1.50;;;16.80;99.90;;;;;;5098934;28;20044;-69
2022/07/10 07:00:04;;;;;;;7.22;1.02;;;16.80;99.90;;;;;;5099323;28;20170;-69
2022/07/10 07:02:30;;;;;;;8.43;1.20;;;16.90;99.90;;;;;;5099083;28;20119;-69
2022/07/10 07:04:56;;;;;;;11.38;1.48;;;17.00;99.90;;;;;;5099296;28;20119;-69
2022/07/10 07:07:21;;;;;;;8.25;1.30;;;17.20;99.90;;;;;;5099135;28;20098;-69
2022/07/10 07:09:49;;;;;;;7.47;0.93;;;17.30;99.90;;;;;;5097869;28;20032;-70
2022/07/10 07:12:16;;;;;;;10.07;1.85;;;17.30;99.90;;;;;;5099002;28;20035;-68
2022/07/10 07:14:41;;;;;;;12.85;1.25;;;17.30;99.90;;;;;;5098878;28;20040;-69
2022/07/10 07:17:09;;;;;;;7.07;1.20;;;17.30;99.90;;;;;;5098707;28;20035;-69
2022/07/10 07:25:09;;;;;;;8.35;1.25;;;17.60;99.90;;;;;;5098734;28;20051;-68
2022/07/10 07:27:37;;;;;;;8.10;1.13;;;17.60;99.90;;;;;;5098701;28;20117;-69
2022/07/10 07:30:08;;;;;;;13.75;1.10;;;17.70;99.90;;;;;;5098702;28;20337;-69
2022/07/10 07:32:34;;;;;;;6.43;1.10;;;17.70;99.90;;;;;;5098725;28;20043;-69
2022/07/10 07:35:00;;;;;;;7.28;1.23;;;17.70;99.90;;;;;;5098192;28;20115;-69
2022/07/10 07:37:36;;;;;;;4.13;1.00;;;17.70;99.90;;;;;;5098563;28;20040;-70
2022/07/10 07:40:04;;;;;;;9.02;1.25;;;17.70;99.90;;;;;;5100441;28;20506;-70
2022/07/10 07:42:29;;;;;;;9.38;1.10;;;17.40;99.90;;;;;;5098228;28;20118;-68
2022/07/10 07:44:55;;;;;;;6.55;1.30;;;17.30;99.90;;;;;;5098499;28;20139;-69
2022/07/10 07:47:21;;;;;;;11.65;1.10;;;17.30;99.90;;;;;;5098173;28;20479;-69
2022/07/10 07:49:46;;;;;;;8.43;1.13;;;17.40;99.90;;;;;;5098038;28;20327;-69
2022/07/10 07:52:13;;;;;;;9.48;1.38;;;17.50;99.90;;;;;;5098318;28;20320;-69
2022/07/10 07:54:39;;;;;;;4.13;1.15;;;17.60;99.90;;;;;;5098306;28;20048;-69
2022/07/10 07:57:05;;;;;;;7.38;0.98;;;17.50;99.90;;;;;;5098032;28;20478;-69
2022/07/10 07:59:31;;;;;;;2.45;0.60;;;17.50;99.90;;;;;;5097031;28;20104;-68
2022/07/10 08:01:56;;;;;;;8.10;0.90;;;17.70;99.90;;;;;;5097728;28;20040;-69
2022/07/10 08:04:22;;;;;;;7.60;0.80;;;17.80;99.90;;;;;;5098071;28;20036;-69
2022/07/10 08:06:51;;;;;;;3.80;0.63;;;17.70;99.90;;;;;;5096463;28;20036;-69
2022/07/10 08:09:18;;;;;;;5.13;0.80;;;17.90;99.90;;;;;;5097623;28;20047;-69
2022/07/10 08:11:44;;;;;;;7.35;0.70;;;17.80;99.90;;;;;;5097819;28;20093;-69
2022/07/10 08:14:09;;;;;;;8.55;1.00;;;17.80;99.90;;;;;;5097673;28;20044;-69
2022/07/10 08:16:35;;;;;;;4.90;0.73;;;17.70;99.90;;;;;;5096577;28;20395;-83
2022/07/10 08:19:01;;;;;;;9.05;0.85;;;17.60;99.90;;;;;;5079273;28;20384;-73
2022/07/10 08:21:26;;;;;;;4.30;0.70;;;17.60;99.90;;;;;;5097857;28;20032;-71
2022/07/10 08:23:53;;;;;;;6.60;0.60;;;17.70;99.90;;;;;;5097105;28;20059;-71
2022/07/10 08:26:19;;;;;;;6.28;0.60;;;17.80;99.90;;;;;;5097651;28;20389;-83
2022/07/10 08:28:45;;;;;;;5.70;0.73;;;17.80;99.90;;;;;;5096465;27;20050;-68
2022/07/10 08:31:10;;;;;;;4.55;0.80;;;17.70;99.90;;;;;;5097290;28;20119;-70
2022/07/10 08:33:36;;;;;;;4.75;0.60;;;17.80;99.90;;;;;;5097337;28;20040;-69
2022/07/10 08:36:02;;;;;;;4.03;0.70;;;17.90;99.90;;;;;;5097350;28;20481;-69
2022/07/10 08:38:28;;;;;;;3.92;0.80;;;18.00;99.90;;;;;;5097535;28;20088;-72
2022/07/10 08:40:57;;;;;;;5.40;0.65;;;18.00;99.90;;;;;;5097372;28;20119;-69
2022/07/10 08:43:24;;;;;;;4.03;0.70;;;18.00;99.90;;;;;;5097138;28;20048;-69
2022/07/10 08:45:50;;;;;;;7.75;0.85;;;18.00;99.90;;;;;;5097001;28;20043;-70
2022/07/10 08:48:23;;;;;;;3.22;0.60;;;18.00;99.90;;;;;;5096973;28;20121;-70
2022/07/10 08:50:52;;;;;;;2.75;0.52;;;18.00;99.90;;;;;;5097180;28;20036;-70
2022/07/10 08:53:25;;;;;;;5.40;0.70;;;18.20;99.90;;;;;;5096986;28;20377;-70
2022/07/10 08:55:51;;;;;;;4.30;0.50;;;18.20;99.90;;;;;;5097102;28;20050;-70
2022/07/10 08:58:19;;;;;;;2.63;0.40;;;18.00;99.90;;;;;;5097140;28;20040;-69
2022/07/10 09:00:45;;;;;;;1.38;0.30;;;18.00;99.90;;;;;;5096793;28;20109;-69
2022/07/10 09:03:11;;;;;;;2.70;0.43;;;18.00;99.90;;;;;;5096682;28;20769;-69
2022/07/10 09:05:36;;;;;;;3.63;0.65;;;18.20;99.90;;;;;;5097072;28;20119;-69
2022/07/10 09:08:02;;;;;;;3.25;0.57;;;18.00;99.90;;;;;;5096052;28;20122;-69
2022/07/10 09:10:28;;;;;;;2.83;0.32;;;18.10;99.90;;;;;;5097040;28;20042;-69
2022/07/10 09:12:59;;;;;;;6.80;0.40;;;18.30;99.90;;;;;;5096604;28;20433;-69
2022/07/10 09:15:28;;;;;;;4.72;0.85;;;18.40;99.90;;;;;;5096810;28;20040;-69
2022/07/10 09:17:56;;;;;;;3.70;0.55;;;18.40;99.90;;;;;;5096217;28;20050;-69
2022/07/10 09:20:30;;;;;;;5.72;0.57;;;18.50;99.90;;;;;;5096842;28;20055;-69
2022/07/10 09:22:58;;;;;;;4.15;0.50;;;18.40;99.90;;;;;;5096453;28;20058;-69
2022/07/10 09:25:34;;;;;;;2.10;0.40;;;18.30;99.90;;;;;;5096860;28;20115;-69
2022/07/10 09:28:05;;;;;;;2.47;0.30;;;18.20;99.90;;;;;;5096757;28;20032;-69
2022/07/10 09:30:35;;;;;;;3.42;0.40;;;18.40;99.90;;;;;;5096684;28;20036;-69
2022/07/10 09:33:25;;;;;;;7.25;0.40;;;18.30;99.90;;;;;;5096824;28;20048;-69
2022/07/10 09:36:10;;;;;;;1.67;0.40;;;18.40;99.90;;;;;;5096379;28;20036;-69
2022/07/10 09:38:51;;;;;;;5.75;0.60;;;18.60;99.90;;;;;;5096762;28;20059;-69
2022/07/10 09:41:21;;;;;;;2.63;0.52;;;18.60;99.90;;;;;;5096764;28;20040;-69
2022/07/10 09:43:58;;;;;;;5.03;0.60;;;18.50;99.90;;;;;;5096468;28;20040;-69
2022/07/10 09:46:26;;;;;;;3.92;0.98;;;18.10;99.90;;;;;;5096362;28;20036;-69
2022/07/10 09:49:13;;;;;;;4.65;1.17;;;17.90;99.90;;;;;;5096043;28;20044;-69
2022/07/10 09:51:39;;;;;;;5.32;1.15;;;17.60;99.90;;;;;;5095285;28;20044;-69
2022/07/10 09:54:08;;;;;;;4.88;1.05;;;17.50;99.90;;;;;;5096246;28;20507;-69
2022/07/10 09:56:43;;;;;;;6.32;1.33;;;17.30;99.90;;;;;;5096411;28;20044;-70
2022/07/10 09:59:17;;;;;;;3.63;1.20;;;17.30;99.90;;;;;;5095346;28;20127;-69
2022/07/10 10:01:48;;;;;;;2.90;1.17;;;17.30;99.90;;;;;;5096309;28;20050;-69
2022/07/10 10:04:16;;;;;;;4.75;1.30;;;17.30;99.90;;;;;;5096488;28;20036;-69
2022/07/10 10:06:44;;;;;;;4.78;1.10;;;17.40;99.90;;;;;;5096175;28;20032;-70
2022/07/10 10:09:24;;;;;;;2.35;0.80;;;17.40;99.90;;;;;;5096330;28;20044;-70
2022/07/10 10:11:59;;;;;;;3.88;1.17;;;17.40;99.90;;;;;;5095413;28;20370;-70
2022/07/10 10:14:27;;;;;;;5.40;1.15;;;17.50;99.90;;;;;;5096208;28;20036;-70
2022/07/10 10:16:55;;;;;;;4.57;1.13;;;17.60;99.90;;;;;;5096287;28;20073;-70
2022/07/10 10:22:28;;;;;;;6.95;1.73;;;17.40;99.90;;;;;;5073633;28;20086;-70
2022/07/10 10:24:55;;;;;;;5.18;1.60;;;17.50;99.90;;;;;;5074187;28;20425;-69
2022/07/10 10:27:21;;;;;;;5.75;1.50;;;17.70;99.90;;;;;;5084434;28;20044;-69
2022/07/10 10:29:48;;;;;;;7.72;1.40;;;17.90;99.90;;;;;;5096231;28;20043;-69
2022/07/10 10:32:14;;;;;;;8.45;1.92;;;18.00;99.90;;;;;;5099219;28;20044;-69
2022/07/10 10:34:42;;;;;;;5.78;1.70;;;18.10;99.90;;;;;;5099922;28;20044;-70
2022/07/10 10:37:27;;;;;;;7.55;1.55;;;18.20;99.90;;;;;;5099499;28;20032;-69
2022/07/10 10:39:56;;;;;;;5.93;1.60;;;18.20;99.90;;;;;;5098124;28;20043;-69
2022/07/10 10:42:39;;;;;;;12.20;2.28;;;18.00;99.90;;;;;;5099468;28;20051;-69
2022/07/10 10:45:24;;;;;;;11.13;2.10;;;18.00;99.90;;;;;;5099581;28;20135;-69
2022/07/10 10:48:08;;;;;;;14.10;2.67;;;18.00;99.90;;;;;;5099228;28;20165;-69
2022/07/10 10:50:38;;;;;;;7.60;1.98;;;18.00;99.90;;;;;;5099532;28;20040;-69
2022/07/10 10:53:04;;;;;;;8.90;1.75;;;18.20;99.90;;;;;;5099063;28;20044;-69
2022/07/10 10:55:29;;;;;;;5.82;1.95;;;18.50;99.90;;;;;;5099375;28;20440;-69
2022/07/10 10:58:14;;;;;;;6.32;1.75;;;18.40;99.90;;;;;;5098443;28;20066;-69
2022/07/10 11:00:41;;;;;;;9.25;1.90;;;18.30;99.90;;;;;;5099293;28;20042;-70
2022/07/10 11:03:25;;;;;;;10.52;2.42;;;18.20;99.90;;;;;;5098972;28;20336;-69
2022/07/10 11:05:51;;;;;;;9.82;2.10;;;18.10;99.90;;;;;;5098910;28;20433;-70
2022/07/10 11:08:43;;;;;;;7.32;2.20;;;18.00;99.90;;;;;;5099131;28;20043;-70
2022/07/10 11:11:30;;;;;;;10.32;2.40;;;17.90;99.90;;;;;;5097645;28;20405;-70
2022/07/10 11:13:59;;;;;;;8.02;1.95;;;18.00;99.90;;;;;;5098902;28;20040;-70
2022/07/10 11:16:25;;;;;;;15.50;2.33;;;18.20;99.90;;;;;;5098855;28;20044;-70
2022/07/10 11:18:53;;;;;;;11.07;1.95;;;18.20;99.90;;;;;;5098633;28;20044;-69
2022/07/10 11:21:23;;;;;;;5.22;1.58;;;18.20;99.90;;;;;;5099062;28;20040;-67
2022/07/10 11:24:27;;;;;;;7.55;1.67;;;18.50;99.90;;;;;;5098560;28;20465;-67
2022/07/10 11:27:09;;;;;;;6.35;1.33;;;18.80;99.90;;;;;;5099327;28;20119;-67
2022/07/10 11:29:39;;;;;;;9.43;1.80;;;19.20;99.90;;;;;;5098733;28;20047;-68
2022/07/10 11:32:07;;;;;;;7.53;1.75;;;19.30;99.90;;;;;;5098815;28;20092;-68
2022/07/10 11:34:36;;;;;;;7.00;1.60;;;19.40;99.90;;;;;;5095396;28;20489;-69
2022/07/10 11:37:16;;;;;;;6.45;1.60;;;19.30;99.90;;;;;;5083422;28;20047;-68
2022/07/10 11:39:42;;;;;;;7.28;1.58;;;19.20;99.90;;;;;;5097716;28;20092;-69
2022/07/10 11:42:08;;;;;;;5.50;1.55;;;18.90;99.90;;;;;;5097115;28;20040;-69
2022/07/10 11:44:34;;;;;;;10.25;1.90;;;18.60;99.90;;;;;;5076285;28;20052;-69
2022/07/10 11:47:00;;;;;;;8.85;1.73;;;18.30;99.90;;;;;;5077539;28;20130;-69
2022/07/10 11:49:27;;;;;;;5.68;1.42;;;18.40;99.90;;;;;;5075697;28;20449;-71
2022/07/10 11:51:53;;;;;;;6.70;1.40;;;18.50;99.90;;;;;;5077000;28;20037;-69
2022/07/10 11:54:19;;;;;;;8.13;1.35;;;18.70;99.90;;;;;;5077607;28;20044;-69
2022/07/10 11:56:53;;;;;;;7.80;1.33;;;18.60;99.90;;;;;;5077723;28;20098;-69
2022/07/10 11:59:26;;;;;;;7.93;1.40;;;18.70;99.90;;;;;;5077858;28;20072;-69
2022/07/10 12:01:53;;;;;;;7.07;1.42;;;18.40;99.90;;;;;;5076645;28;20044;-70
2022/07/10 12:04:23;;;;;;;9.50;1.60;;;18.40;99.90;;;;;;5077567;28;20041;-68
2022/07/10 12:06:50;;;;;;;4.93;1.30;;;18.30;99.90;;;;;;5077876;28;20040;-71
2022/07/10 12:09:23;;;;;;;6.38;1.35;;;18.40;99.90;;;;;;5077399;28;20414;-69
2022/07/10 12:12:06;;;;;;;6.57;2.13;;;18.50;99.90;;;;;;5077456;28;20041;-69
2022/07/10 12:14:34;;;;;;;9.20;1.77;;;18.40;99.90;;;;;;5077340;28;20040;-69
2022/07/10 12:16:59;;;;;;;8.35;1.60;;;18.30;99.90;;;;;;5077524;28;20036;-68
2022/07/10 12:19:31;;;;;;;12.52;1.90;;;18.40;99.90;;;;;;5077126;28;20429;-69
2022/07/10 12:21:58;;;;;;;8.30;1.73;;;18.20;99.90;;;;;;5077333;28;20119;-68
2022/07/10 12:24:26;;;;;;;9.70;1.70;;;18.20;99.90;;;;;;5076113;28;20109;-68
2022/07/10 12:26:53;;;;;;;5.22;1.42;;;18.20;99.90;;;;;;5077179;28;20048;-68
2022/07/10 12:29:28;;;;;;;8.10;1.88;;;18.20;99.90;;;;;;5077215;28;20330;-68
2022/07/10 12:32:00;;;;;;;10.52;1.65;;;18.20;99.90;;;;;;5077557;28;20029;-68
2022/07/10 12:34:47;;;;;;;6.00;1.63;;;18.40;99.90;;;;;;5077157;28;20101;-69
2022/07/10 12:37:14;;;;;;;6.05;1.63;;;18.40;99.90;;;;;;5077010;28;20333;-69
2022/07/10 12:39:53;;;;;;;7.47;2.03;;;18.40;99.90;;;;;;5078134;28;20116;-69
2022/07/10 12:42:31;;;;;;;7.82;1.63;;;18.40;99.90;;;;;;5078716;28;20067;-72
2022/07/10 12:45:11;;;;;;;4.97;1.60;;;18.50;99.90;;;;;;5076478;28;20356;-69
2022/07/10 12:47:47;;;;;;;4.13;1.40;;;18.40;99.90;;;;;;5076691;28;20034;-69
2022/07/10 12:50:16;;;;;;;5.13;1.60;;;18.60;99.90;;;;;;5076615;28;20037;-70
2022/07/10 12:52:41;;;;;;;10.98;2.30;;;18.70;99.90;;;;;;5076813;28;20090;-70
2022/07/10 12:55:16;;;;;;;8.55;2.25;;;18.70;99.90;;;;;;5076667;28;20040;-68
2022/07/10 12:58:05;;;;;;;6.85;1.70;;;18.50;99.90;;;;;;5076705;28;20422;-68
2022/07/10 13:00:34;;;;;;;7.00;2.30;;;18.40;99.90;;;;;;5076235;28;20048;-70